sensor_id;sensor_type;location;lat;lon;timestamp;pressure;altitude;pressure_sealevel;temperature
73734;BMP280;62039;50.000;9.064;2023-02-01T00:02:26;100837.56;;;4.21
73734;BMP280;62039;50.000;9.064;2023-02-01T00:04:52;100840.06;;;4.23
73734;BMP280;62039;50.000;9.064;2023-02-01T00:07:19;100849.47;;;4.24
73734;BMP280;62039;50.000;9.064;2023-02-01T00:09:45;100856.31;;;4.25
73734;BMP280;62039;50.000;9.064;2023-02-01T00:12:13;100848.53;;;4.25
73734;BMP280;62039;50.000;9.064;2023-02-01T00:14:40;100852.06;;;4.24
73734;BMP280;62039;50.000;9.064;2023-02-01T00:17:06;100851.22;;;4.23
73734;BMP280;62039;50.000;9.064;2023-02-01T00:19:34;100846.06;;;4.23
73734;BMP280;62039;50.000;9.064;2023-02-01T00:22:01;100849.47;;;4.24
73734;BMP280;62039;50.000;9.064;2023-02-01T00:24:27;100850.31;;;4.24
73734;BMP280;62039;50.000;9.064;2023-02-01T00:26:54;100847.72;;;4.24
73734;BMP280;62039;50.000;9.064;2023-02-01T00:29:22;100852.66;;;4.27
73734;BMP280;62039;50.000;9.064;2023-02-01T00:31:50;100849.13;;;4.28
73734;BMP280;62039;50.000;9.064;2023-02-01T00:34:17;100847.28;;;4.30
73734;BMP280;62039;50.000;9.064;2023-02-01T00:36:44;100857.41;;;4.34
73734;BMP280;62039;50.000;9.064;2023-02-01T00:39:11;100850.38;;;4.36
73734;BMP280;62039;50.000;9.064;2023-02-01T00:41:38;100858.84;;;4.38
73734;BMP280;62039;50.000;9.064;2023-02-01T00:44:05;100847.59;;;4.39
73734;BMP280;62039;50.000;9.064;2023-02-01T00:46:33;100844.03;;;4.40
73734;BMP280;62039;50.000;9.064;2023-02-01T00:48:59;100850.03;;;4.40
73734;BMP280;62039;50.000;9.064;2023-02-01T00:51:28;100851.78;;;4.40
73734;BMP280;62039;50.000;9.064;2023-02-01T00:53:55;100851.78;;;4.40
73734;BMP280;62039;50.000;9.064;2023-02-01T00:56:22;100843.22;;;4.39
73734;BMP280;62039;50.000;9.064;2023-02-01T00:58:49;100838.16;;;4.38
73734;BMP280;62039;50.000;9.064;2023-02-01T01:01:18;100840.63;;;4.39
73734;BMP280;62039;50.000;9.064;2023-02-01T01:03:47;100838.84;;;4.40
73734;BMP280;62039;50.000;9.064;2023-02-01T01:06:15;100855.09;;;4.42
73734;BMP280;62039;50.000;9.064;2023-02-01T01:08:43;100849.22;;;4.40
73734;BMP280;62039;50.000;9.064;2023-02-01T01:11:12;100848.28;;;4.41
73734;BMP280;62039;50.000;9.064;2023-02-01T01:13:39;100846.41;;;4.43
73734;BMP280;62039;50.000;9.064;2023-02-01T01:16:07;100844.56;;;4.45
73734;BMP280;62039;50.000;9.064;2023-02-01T01:18:35;100842.66;;;4.47
73734;BMP280;62039;50.000;9.064;2023-02-01T01:21:04;100845.06;;;4.50
73734;BMP280;62039;50.000;9.064;2023-02-01T01:23:31;100825.09;;;4.52
73734;BMP280;62039;50.000;9.064;2023-02-01T01:25:58;100831.78;;;4.54
73734;BMP280;62039;50.000;9.064;2023-02-01T01:28:24;100837.69;;;4.56
73734;BMP280;62039;50.000;9.064;2023-02-01T01:30:51;100847.00;;;4.59
73734;BMP280;62039;50.000;9.064;2023-02-01T01:33:17;100844.28;;;4.60
73734;BMP280;62039;50.000;9.064;2023-02-01T01:35:44;100832.91;;;4.63
73734;BMP280;62039;50.000;9.064;2023-02-01T01:38:12;100832.69;;;4.66
73734;BMP280;62039;50.000;9.064;2023-02-01T01:40:38;100830.81;;;4.68
73734;BMP280;62039;50.000;9.064;2023-02-01T01:43:13;100834.13;;;4.70
73734;BMP280;62039;50.000;9.064;2023-02-01T01:45:41;100822.09;;;4.69
73734;BMP280;62039;50.000;9.064;2023-02-01T01:48:12;100818.59;;;4.70
73734;BMP280;62039;50.000;9.064;2023-02-01T01:50:42;100815.06;;;4.71
73734;BMP280;62039;50.000;9.064;2023-02-01T01:53:14;100804.72;;;4.71
73734;BMP280;62039;50.000;9.064;2023-02-01T01:55:44;100804.72;;;4.71
73734;BMP280;62039;50.000;9.064;2023-02-01T01:58:15;100802.03;;;4.73
73734;BMP280;62039;50.000;9.064;2023-02-01T02:00:43;100801.19;;;4.72
73734;BMP280;62039;50.000;9.064;2023-02-01T02:03:14;100803.78;;;4.72
73734;BMP280;62039;50.000;9.064;2023-02-01T02:05:44;100799.75;;;4.68
73734;BMP280;62039;50.000;9.064;2023-02-01T02:08:12;100791.97;;;4.68
73734;BMP280;62039;50.000;9.064;2023-02-01T02:10:39;100792.22;;;4.65
73734;BMP280;62039;50.000;9.064;2023-02-01T02:13:06;100795.84;;;4.62
73734;BMP280;62039;50.000;9.064;2023-02-01T02:15:33;100791.69;;;4.60
73734;BMP280;62039;50.000;9.064;2023-02-01T02:18:05;100779.72;;;4.59
73734;BMP280;62039;50.000;9.064;2023-02-01T02:20:59;100773.81;;;4.57
73734;BMP280;62039;50.000;9.064;2023-02-01T02:23:45;100769.56;;;4.56
73734;BMP280;62039;50.000;9.064;2023-02-01T02:26:24;100758.41;;;4.55
73734;BMP280;62039;50.000;9.064;2023-02-01T02:29:36;100769.78;;;4.53
73734;BMP280;62039;50.000;9.064;2023-02-01T02:32:28;100763.91;;;4.51
73734;BMP280;62039;50.000;9.064;2023-02-01T02:35:02;100760.59;;;4.49
73734;BMP280;62039;50.000;9.064;2023-02-01T02:37:38;100753.66;;;4.49
73734;BMP280;62039;50.000;9.064;2023-02-01T02:40:11;100773.53;;;4.49
73734;BMP280;62039;50.000;9.064;2023-02-01T02:42:44;100766.72;;;4.48
73734;BMP280;62039;50.000;9.064;2023-02-01T02:45:17;100770.13;;;4.48
73734;BMP280;62039;50.000;9.064;2023-02-01T02:47:48;100777.06;;;4.48
73734;BMP280;62039;50.000;9.064;2023-02-01T02:50:24;100780.47;;;4.48
73734;BMP280;62039;50.000;9.064;2023-02-01T02:52:57;100785.75;;;4.47
73734;BMP280;62039;50.000;9.064;2023-02-01T02:55:26;100786.81;;;4.44
73734;BMP280;62039;50.000;9.064;2023-02-01T02:57:53;100784.31;;;4.43
73734;BMP280;62039;50.000;9.064;2023-02-01T03:00:23;100790.34;;;4.43
73734;BMP280;62039;50.000;9.064;2023-02-01T03:02:52;100781.63;;;4.44
73734;BMP280;62039;50.000;9.064;2023-02-01T03:05:20;100780.81;;;4.44
73734;BMP280;62039;50.000;9.064;2023-02-01T03:07:57;100766.94;;;4.45
73734;BMP280;62039;50.000;9.064;2023-02-01T03:10:34;100783.28;;;4.45
73734;BMP280;62039;50.000;9.064;2023-02-01T03:13:05;100779.88;;;4.45
73734;BMP280;62039;50.000;9.064;2023-02-01T03:15:35;100778.00;;;4.47
73734;BMP280;62039;50.000;9.064;2023-02-01T03:18:05;100774.56;;;4.46
73734;BMP280;62039;50.000;9.064;2023-02-01T03:20:34;100770.94;;;4.49
73734;BMP280;62039;50.000;9.064;2023-02-01T03:23:04;100764.00;;;4.49
73734;BMP280;62039;50.000;9.064;2023-02-01T03:25:32;100766.50;;;4.51
73734;BMP280;62039;50.000;9.064;2023-02-01T03:28:01;100762.97;;;4.52
73734;BMP280;62039;50.000;9.064;2023-02-01T03:30:33;100766.41;;;4.52
73734;BMP280;62039;50.000;9.064;2023-02-01T03:33:03;100763.69;;;4.54
73734;BMP280;62039;50.000;9.064;2023-02-01T03:35:32;100762.75;;;4.55
73734;BMP280;62039;50.000;9.064;2023-02-01T03:38:07;100761.81;;;4.56
73734;BMP280;62039;50.000;9.064;2023-02-01T03:40:36;100759.22;;;4.56
73734;BMP280;62039;50.000;9.064;2023-02-01T03:43:06;100750.53;;;4.57
73734;BMP280;62039;50.000;9.064;2023-02-01T03:45:36;100750.53;;;4.57
73734;BMP280;62039;50.000;9.064;2023-02-01T03:48:05;100742.75;;;4.57
73734;BMP280;62039;50.000;9.064;2023-02-01T03:50:33;100745.34;;;4.57
73734;BMP280;62039;50.000;9.064;2023-02-01T03:53:05;100752.19;;;4.58
73734;BMP280;62039;50.000;9.064;2023-02-01T03:55:34;100749.59;;;4.58
73734;BMP280;62039;50.000;9.064;2023-02-01T03:58:06;100756.44;;;4.59
73734;BMP280;62039;50.000;9.064;2023-02-01T04:00:33;100753.84;;;4.59
73734;BMP280;62039;50.000;9.064;2023-02-01T04:02:59;100750.28;;;4.60
73734;BMP280;62039;50.000;9.064;2023-02-01T04:05:26;100755.47;;;4.60
73734;BMP280;62039;50.000;9.064;2023-02-01T04:07:53;100751.94;;;4.61
73734;BMP280;62039;50.000;9.064;2023-02-01T04:10:21;100744.09;;;4.62
73734;BMP280;62039;50.000;9.064;2023-02-01T04:12:48;100738.06;;;4.62
73734;BMP280;62039;50.000;9.064;2023-02-01T04:15:15;100732.91;;;4.62
73734;BMP280;62039;50.000;9.064;2023-02-01T04:17:41;100737.25;;;4.61
73734;BMP280;62039;50.000;9.064;2023-02-01T04:20:09;100733.94;;;4.59
73734;BMP280;62039;50.000;9.064;2023-02-01T04:22:36;100737.50;;;4.58
73734;BMP280;62039;50.000;9.064;2023-02-01T04:25:03;100736.66;;;4.58
73734;BMP280;62039;50.000;9.064;2023-02-01T04:27:31;100722.06;;;4.57
73734;BMP280;62039;50.000;9.064;2023-02-01T04:29:58;100725.47;;;4.57
73734;BMP280;62039;50.000;9.064;2023-02-01T04:32:24;100723.00;;;4.56
73734;BMP280;62039;50.000;9.064;2023-02-01T04:34:51;100723.00;;;4.56
73734;BMP280;62039;50.000;9.064;2023-02-01T04:37:17;100729.81;;;4.57
73734;BMP280;62039;50.000;9.064;2023-02-01T04:39:44;100736.75;;;4.56
73734;BMP280;62039;50.000;9.064;2023-02-01T04:42:10;100740.19;;;4.57
73734;BMP280;62039;50.000;9.064;2023-02-01T04:44:38;100739.34;;;4.56
73734;BMP280;62039;50.000;9.064;2023-02-01T04:47:05;100747.22;;;4.55
73734;BMP280;62039;50.000;9.064;2023-02-01T04:49:31;100748.97;;;4.54
73734;BMP280;62039;50.000;9.064;2023-02-01T04:51:58;100742.16;;;4.53
73734;BMP280;62039;50.000;9.064;2023-02-01T04:54:24;100746.63;;;4.51
73734;BMP280;62039;50.000;9.064;2023-02-01T04:56:51;100752.63;;;4.52
73734;BMP280;62039;50.000;9.064;2023-02-01T04:59:18;100749.09;;;4.53
73734;BMP280;62039;50.000;9.064;2023-02-01T05:01:46;100749.91;;;4.53
73734;BMP280;62039;50.000;9.064;2023-02-01T05:04:14;100751.56;;;4.54
73734;BMP280;62039;50.000;9.064;2023-02-01T05:06:41;100746.38;;;4.54
73734;BMP280;62039;50.000;9.064;2023-02-01T05:09:07;100748.88;;;4.56
73734;BMP280;62039;50.000;9.064;2023-02-01T05:11:34;100741.13;;;4.56
73734;BMP280;62039;50.000;9.064;2023-02-01T05:14:00;100735.00;;;4.57
73734;BMP280;62039;50.000;9.064;2023-02-01T05:16:28;100738.41;;;4.57
73734;BMP280;62039;50.000;9.064;2023-02-01T05:18:56;100730.66;;;4.57
73734;BMP280;62039;50.000;9.064;2023-02-01T05:21:22;100737.34;;;4.60
73734;BMP280;62039;50.000;9.064;2023-02-01T05:23:49;100727.97;;;4.59
73734;BMP280;62039;50.000;9.064;2023-02-01T05:26:15;100723.72;;;4.58
73734;BMP280;62039;50.000;9.064;2023-02-01T05:28:42;100724.66;;;4.57
73734;BMP280;62039;50.000;9.064;2023-02-01T05:31:09;100724.75;;;4.55
73734;BMP280;62039;50.000;9.064;2023-02-01T05:33:36;100723.22;;;4.53
73734;BMP280;62039;50.000;9.064;2023-02-01T05:36:04;100721.78;;;4.49
73734;BMP280;62039;50.000;9.064;2023-02-01T05:38:32;100721.06;;;4.47
73734;BMP280;62039;50.000;9.064;2023-02-01T05:40:59;100722.97;;;4.45
73734;BMP280;62039;50.000;9.064;2023-02-01T05:43:25;100723.16;;;4.42
73734;BMP280;62039;50.000;9.064;2023-02-01T05:45:52;100724.09;;;4.41
73734;BMP280;62039;50.000;9.064;2023-02-01T05:48:19;100731.88;;;4.41
73734;BMP280;62039;50.000;9.064;2023-02-01T05:50:46;100724.09;;;4.41
73734;BMP280;62039;50.000;9.064;2023-02-01T05:53:13;100723.28;;;4.40
73734;BMP280;62039;50.000;9.064;2023-02-01T05:55:41;100732.78;;;4.40
73734;BMP280;62039;50.000;9.064;2023-02-01T05:58:08;100723.28;;;4.40
73734;BMP280;62039;50.000;9.064;2023-02-01T06:00:35;100720.69;;;4.40
73734;BMP280;62039;50.000;9.064;2023-02-01T06:03:01;100724.09;;;4.41
73734;BMP280;62039;50.000;9.064;2023-02-01T06:05:28;100721.50;;;4.41
73734;BMP280;62039;50.000;9.064;2023-02-01T06:07:54;100711.88;;;4.43
73734;BMP280;62039;50.000;9.064;2023-02-01T06:10:22;100716.03;;;4.45
73734;BMP280;62039;50.000;9.064;2023-02-01T06:12:49;100713.31;;;4.47
73734;BMP280;62039;50.000;9.064;2023-02-01T06:15:16;100720.97;;;4.48
73734;BMP280;62039;50.000;9.064;2023-02-01T06:17:43;100716.63;;;4.49
73734;BMP280;62039;50.000;9.064;2023-02-01T06:20:11;100718.28;;;4.50
73734;BMP280;62039;50.000;9.064;2023-02-01T06:22:38;100707.69;;;4.53
73734;BMP280;62039;50.000;9.064;2023-02-01T06:25:06;100704.16;;;4.54
73734;BMP280;62039;50.000;9.064;2023-02-01T06:27:35;100700.66;;;4.55
73734;BMP280;62039;50.000;9.064;2023-02-01T06:30:02;100699.81;;;4.54
73734;BMP280;62039;50.000;9.064;2023-02-01T06:32:29;100711.91;;;4.54
73734;BMP280;62039;50.000;9.064;2023-02-01T06:34:56;100712.06;;;4.52
73734;BMP280;62039;50.000;9.064;2023-02-01T06:37:23;100714.66;;;4.52
73734;BMP280;62039;50.000;9.064;2023-02-01T06:39:49;100718.03;;;4.53
73734;BMP280;62039;50.000;9.064;2023-02-01T06:42:16;100724.03;;;4.53
73734;BMP280;62039;50.000;9.064;2023-02-01T06:44:44;100728.38;;;4.53
73734;BMP280;62039;50.000;9.064;2023-02-01T06:47:11;100719.09;;;4.50
73734;BMP280;62039;50.000;9.064;2023-02-01T06:49:37;100726.03;;;4.50
73734;BMP280;62039;50.000;9.064;2023-02-01T06:52:04;100725.31;;;4.48
73734;BMP280;62039;50.000;9.064;2023-02-01T06:54:30;100734.00;;;4.47
73734;BMP280;62039;50.000;9.064;2023-02-01T06:56:57;100734.00;;;4.47
73734;BMP280;62039;50.000;9.064;2023-02-01T06:59:23;100746.13;;;4.46
73734;BMP280;62039;50.000;9.064;2023-02-01T07:01:51;100749.53;;;4.47
73734;BMP280;62039;50.000;9.064;2023-02-01T07:04:18;100735.91;;;4.45
73734;BMP280;62039;50.000;9.064;2023-02-01T07:06:44;100742.72;;;4.46
73734;BMP280;62039;50.000;9.064;2023-02-01T07:09:11;100742.84;;;4.44
73734;BMP280;62039;50.000;9.064;2023-02-01T07:11:37;100745.31;;;4.46
73734;BMP280;62039;50.000;9.064;2023-02-01T07:14:04;100741.06;;;4.45
73734;BMP280;62039;50.000;9.064;2023-02-01T07:16:30;100738.47;;;4.45
73734;BMP280;62039;50.000;9.064;2023-02-01T07:18:58;100735.06;;;4.44
73734;BMP280;62039;50.000;9.064;2023-02-01T07:21:25;100734.44;;;4.41
73734;BMP280;62039;50.000;9.064;2023-02-01T07:23:52;100729.50;;;4.38
73734;BMP280;62039;50.000;9.064;2023-02-01T07:26:18;100717.72;;;4.34
73734;BMP280;62039;50.000;9.064;2023-02-01T07:28:45;100711.03;;;4.31
73734;BMP280;62039;50.000;9.064;2023-02-01T07:31:13;100710.19;;;4.30
73734;BMP280;62039;50.000;9.064;2023-02-01T07:33:40;100711.13;;;4.29
73734;BMP280;62039;50.000;9.064;2023-02-01T07:36:11;100718.88;;;4.29
73734;BMP280;62039;50.000;9.064;2023-02-01T07:38:38;100731.81;;;4.29
73734;BMP280;62039;50.000;9.064;2023-02-01T07:41:05;100751.56;;;4.30
73734;BMP280;62039;50.000;9.064;2023-02-01T07:43:32;100752.41;;;4.31
73734;BMP280;62039;50.000;9.064;2023-02-01T07:45:59;100762.63;;;4.32
73734;BMP280;62039;50.000;9.064;2023-02-01T07:48:26;100761.47;;;4.37
73734;BMP280;62039;50.000;9.064;2023-02-01T07:51:00;100764.66;;;4.40
73734;BMP280;62039;50.000;9.064;2023-02-01T07:53:30;100774.91;;;4.42
73734;BMP280;62039;50.000;9.064;2023-02-01T07:55:57;100780.81;;;4.44
73734;BMP280;62039;50.000;9.064;2023-02-01T07:58:24;100787.66;;;4.45
73734;BMP280;62039;50.000;9.064;2023-02-01T08:00:51;100789.16;;;4.47
73734;BMP280;62039;50.000;9.064;2023-02-01T08:03:18;100789.88;;;4.49
73734;BMP280;62039;50.000;9.064;2023-02-01T08:05:44;100796.63;;;4.52
73734;BMP280;62039;50.000;9.064;2023-02-01T08:08:11;100794.72;;;4.54
73734;BMP280;62039;50.000;9.064;2023-02-01T08:10:39;100790.28;;;4.56
73734;BMP280;62039;50.000;9.064;2023-02-01T08:13:05;100790.06;;;4.59
73734;BMP280;62039;50.000;9.064;2023-02-01T08:15:32;100794.09;;;4.63
73734;BMP280;62039;50.000;9.064;2023-02-01T08:17:58;100793.03;;;4.65
73734;BMP280;62039;50.000;9.064;2023-02-01T08:20:25;100791.06;;;4.69
73734;BMP280;62039;50.000;9.064;2023-02-01T08:22:52;100796.00;;;4.72
73734;BMP280;62039;50.000;9.064;2023-02-01T08:25:20;100804.47;;;4.74
73734;BMP280;62039;50.000;9.064;2023-02-01T08:27:48;100813.78;;;4.77
73734;BMP280;62039;50.000;9.064;2023-02-01T08:30:15;100818.97;;;4.77
73734;BMP280;62039;50.000;9.064;2023-02-01T08:32:42;100815.44;;;4.78
73734;BMP280;62039;50.000;9.064;2023-02-01T08:35:09;100810.16;;;4.79
73734;BMP280;62039;50.000;9.064;2023-02-01T08:37:35;100810.03;;;4.81
73734;BMP280;62039;50.000;9.064;2023-02-01T08:40:03;100809.22;;;4.80
73734;BMP280;62039;50.000;9.064;2023-02-01T08:42:29;100806.63;;;4.80
73734;BMP280;62039;50.000;9.064;2023-02-01T08:44:57;100817.81;;;4.81
73734;BMP280;62039;50.000;9.064;2023-02-01T08:47:24;100817.69;;;4.82
73734;BMP280;62039;50.000;9.064;2023-02-01T08:49:50;100820.19;;;4.84
73734;BMP280;62039;50.000;9.064;2023-02-01T08:52:17;100817.50;;;4.85
73734;BMP280;62039;50.000;9.064;2023-02-01T08:54:43;100823.50;;;4.86
73734;BMP280;62039;50.000;9.064;2023-02-01T08:57:10;100820.78;;;4.87
73734;BMP280;62039;50.000;9.064;2023-02-01T08:59:37;100825.94;;;4.87
73734;BMP280;62039;50.000;9.064;2023-02-01T09:02:05;100832.78;;;4.88
73734;BMP280;62039;50.000;9.064;2023-02-01T09:04:31;100829.25;;;4.89
73734;BMP280;62039;50.000;9.064;2023-02-01T09:06:58;100837.03;;;4.89
73734;BMP280;62039;50.000;9.064;2023-02-01T09:09:27;100836.09;;;4.90
73734;BMP280;62039;50.000;9.064;2023-02-01T09:11:54;100825.75;;;4.90
73734;BMP280;62039;50.000;9.064;2023-02-01T09:14:20;100832.69;;;4.90
73734;BMP280;62039;50.000;9.064;2023-02-01T09:16:47;100832.78;;;4.88
73734;BMP280;62039;50.000;9.064;2023-02-01T09:19:15;100821.50;;;4.89
73734;BMP280;62039;50.000;9.064;2023-02-01T09:21:51;100827.50;;;4.90
73734;BMP280;62039;50.000;9.064;2023-02-01T09:24:18;100830.81;;;4.92
73734;BMP280;62039;50.000;9.064;2023-02-01T09:26:45;100829.06;;;4.92
73734;BMP280;62039;50.000;9.064;2023-02-01T09:29:11;100831.50;;;4.94
73734;BMP280;62039;50.000;9.064;2023-02-01T09:31:39;100836.59;;;4.95
73734;BMP280;62039;50.000;9.064;2023-02-01T09:34:16;100839.19;;;4.95
73734;BMP280;62039;50.000;9.064;2023-02-01T09:36:42;100837.53;;;4.94
73734;BMP280;62039;50.000;9.064;2023-02-01T09:39:09;100839.19;;;4.95
73734;BMP280;62039;50.000;9.064;2023-02-01T09:41:42;100858.03;;;4.97
73734;BMP280;62039;50.000;9.064;2023-02-01T09:44:23;100856.25;;;4.98
73734;BMP280;62039;50.000;9.064;2023-02-01T09:47:11;100862.13;;;5.00
73734;BMP280;62039;50.000;9.064;2023-02-01T09:49:45;100864.53;;;5.03
73734;BMP280;62039;50.000;9.064;2023-02-01T09:52:14;100876.63;;;5.02
73734;BMP280;62039;50.000;9.064;2023-02-01T09:54:44;100874.88;;;5.03
73734;BMP280;62039;50.000;9.064;2023-02-01T09:57:15;100873.13;;;5.03
73734;BMP280;62039;50.000;9.064;2023-02-01T09:59:44;100868.97;;;5.01
73734;BMP280;62039;50.000;9.064;2023-02-01T10:02:14;100874.28;;;4.99
73734;BMP280;62039;50.000;9.064;2023-02-01T10:04:43;100870.97;;;4.97
73734;BMP280;62039;50.000;9.064;2023-02-01T10:07:18;100868.50;;;4.96
73734;BMP280;62039;50.000;9.064;2023-02-01T10:09:59;100862.59;;;4.94
73734;BMP280;62039;50.000;9.064;2023-02-01T10:12:49;100858.47;;;4.91
73734;BMP280;62039;50.000;9.064;2023-02-01T10:15:43;100863.75;;;4.90
73734;BMP280;62039;50.000;9.064;2023-02-01T10:18:31;100862.81;;;4.91
73734;BMP280;62039;50.000;9.064;2023-02-01T10:21:10;100865.31;;;4.92
73734;BMP280;62039;50.000;9.064;2023-02-01T10:24:07;100858.38;;;4.93
73734;BMP280;62039;50.000;9.064;2023-02-01T10:26:45;100858.22;;;4.94
73734;BMP280;62039;50.000;9.064;2023-02-01T10:29:19;100859.88;;;4.95
73734;BMP280;62039;50.000;9.064;2023-02-01T10:31:46;100847.78;;;4.96
73734;BMP280;62039;50.000;9.064;2023-02-01T10:34:18;100849.31;;;4.98
73734;BMP280;62039;50.000;9.064;2023-02-01T10:36:54;100846.59;;;5.00
73734;BMP280;62039;50.000;9.064;2023-02-01T10:39:21;100836.25;;;5.00
73734;BMP280;62039;50.000;9.064;2023-02-01T10:41:48;100841.22;;;5.03
73734;BMP280;62039;50.000;9.064;2023-02-01T10:44:18;100831.56;;;5.05
73734;BMP280;62039;50.000;9.064;2023-02-01T10:46:46;100829.69;;;5.07
73734;BMP280;62039;50.000;9.064;2023-02-01T10:49:18;100814.88;;;5.09
73734;BMP280;62039;50.000;9.064;2023-02-01T10:51:48;100812.38;;;5.07
73734;BMP280;62039;50.000;9.064;2023-02-01T10:54:19;100808.25;;;5.05
73734;BMP280;62039;50.000;9.064;2023-02-01T10:56:46;100806.50;;;5.05
73734;BMP280;62039;50.000;9.064;2023-02-01T10:59:18;100814.13;;;5.07
73734;BMP280;62039;50.000;9.064;2023-02-01T11:01:46;100802.84;;;5.08
73734;BMP280;62039;50.000;9.064;2023-02-01T11:04:14;100808.03;;;5.08
73734;BMP280;62039;50.000;9.064;2023-02-01T11:06:43;100805.34;;;5.09
73734;BMP280;62039;50.000;9.064;2023-02-01T11:09:18;100807.91;;;5.09
73734;BMP280;62039;50.000;9.064;2023-02-01T11:11:56;100796.84;;;5.07
73734;BMP280;62039;50.000;9.064;2023-02-01T11:14:32;100793.22;;;5.10
73734;BMP280;62039;50.000;9.064;2023-02-01T11:17:01;100795.78;;;5.10
73734;BMP280;62039;50.000;9.064;2023-02-01T11:19:36;100805.97;;;5.13
73734;BMP280;62039;50.000;9.064;2023-02-01T11:22:03;100796.31;;;5.15
73734;BMP280;62039;50.000;9.064;2023-02-01T11:24:34;100787.50;;;5.18
73734;BMP280;62039;50.000;9.064;2023-02-01T11:27:03;100791.84;;;5.17
73734;BMP280;62039;50.000;9.064;2023-02-01T11:29:36;100785.63;;;5.20
73734;BMP280;62039;50.000;9.064;2023-02-01T11:32:04;100783.03;;;5.20
73734;BMP280;62039;50.000;9.064;2023-02-01T11:34:35;100784.56;;;5.22
73734;BMP280;62039;50.000;9.064;2023-02-01T11:37:03;100787.25;;;5.21
73734;BMP280;62039;50.000;9.064;2023-02-01T11:39:33;100792.44;;;5.21
73734;BMP280;62039;50.000;9.064;2023-02-01T11:42:03;100789.97;;;5.19
73734;BMP280;62039;50.000;9.064;2023-02-01T11:44:33;100792.69;;;5.18
73734;BMP280;62039;50.000;9.064;2023-02-01T11:47:19;100792.78;;;5.16
73734;BMP280;62039;50.000;9.064;2023-02-01T11:49:47;100789.38;;;5.16
73734;BMP280;62039;50.000;9.064;2023-02-01T11:52:19;100774.66;;;5.16
73734;BMP280;62039;50.000;9.064;2023-02-01T11:55:14;100774.66;;;5.16
73734;BMP280;62039;50.000;9.064;2023-02-01T11:57:53;100779.84;;;5.16
73734;BMP280;62039;50.000;9.064;2023-02-01T12:00:40;100770.41;;;5.15
73734;BMP280;62039;50.000;9.064;2023-02-01T12:03:35;100778.19;;;5.15
73734;BMP280;62039;50.000;9.064;2023-02-01T12:06:08;100759.94;;;5.17
73734;BMP280;62039;50.000;9.064;2023-02-01T12:09:08;100769.38;;;5.18
73734;BMP280;62039;50.000;9.064;2023-02-01T12:11:45;100762.31;;;5.20
73734;BMP280;62039;50.000;9.064;2023-02-01T12:17:42;100760.41;;;5.22
73734;BMP280;62039;50.000;9.064;2023-02-01T12:20:23;100747.47;;;5.22
73734;BMP280;62039;50.000;9.064;2023-02-01T12:23:09;100746.63;;;5.21
73734;BMP280;62039;50.000;9.064;2023-02-01T12:25:46;100745.81;;;5.21
73734;BMP280;62039;50.000;9.064;2023-02-01T12:28:31;100761.34;;;5.21
73734;BMP280;62039;50.000;9.064;2023-02-01T12:31:20;100741.59;;;5.20
73734;BMP280;62039;50.000;9.064;2023-02-01T12:36:51;100753.72;;;5.19
73734;BMP280;62039;50.000;9.064;2023-02-01T12:39:23;100741.44;;;5.21
73734;BMP280;62039;50.000;9.064;2023-02-01T12:41:56;100755.94;;;5.24
73734;BMP280;62039;50.000;9.064;2023-02-01T12:44:37;100748.06;;;5.25
73734;BMP280;62039;50.000;9.064;2023-02-01T12:47:12;100753.13;;;5.27
73734;BMP280;62039;50.000;9.064;2023-02-01T12:49:45;100743.72;;;5.26
73734;BMP280;62039;50.000;9.064;2023-02-01T12:52:18;100743.72;;;5.26
73734;BMP280;62039;50.000;9.064;2023-02-01T12:54:49;100733.22;;;5.27
73734;BMP280;62039;50.000;9.064;2023-02-01T12:57:23;100736.63;;;5.28
73734;BMP280;62039;50.000;9.064;2023-02-01T12:59:56;100719.44;;;5.27
73734;BMP280;62039;50.000;9.064;2023-02-01T13:02:31;100706.47;;;5.27
73734;BMP280;62039;50.000;9.064;2023-02-01T13:05:04;100720.25;;;5.27
73734;BMP280;62039;50.000;9.064;2023-02-01T13:07:37;100712.38;;;5.29
73734;BMP280;62039;50.000;9.064;2023-02-01T13:10:12;100713.22;;;5.29
73734;BMP280;62039;50.000;9.064;2023-02-01T13:12:44;100718.28;;;5.31
73734;BMP280;62039;50.000;9.064;2023-02-01T13:15:17;100712.28;;;5.30
73734;BMP280;62039;50.000;9.064;2023-02-01T13:17:46;100700.97;;;5.31
73734;BMP280;62039;50.000;9.064;2023-02-01T13:20:19;100694.03;;;5.32
73734;BMP280;62039;50.000;9.064;2023-02-01T13:22:51;100701.56;;;5.35
73734;BMP280;62039;50.000;9.064;2023-02-01T13:25:26;100690.97;;;5.38
73734;BMP280;62039;50.000;9.064;2023-02-01T13:27:55;100709.81;;;5.40
73734;BMP280;62039;50.000;9.064;2023-02-01T13:30:26;100704.63;;;5.40
73734;BMP280;62039;50.000;9.064;2023-02-01T13:33:10;100702.72;;;5.42
73734;BMP280;62039;50.000;9.064;2023-02-01T13:36:09;100708.75;;;5.42
73734;BMP280;62039;50.000;9.064;2023-02-01T13:41:39;100708.16;;;5.39
73734;BMP280;62039;50.000;9.064;2023-02-01T13:44:13;100716.88;;;5.38
73734;BMP280;62039;50.000;9.064;2023-02-01T13:46:44;100711.69;;;5.38
73734;BMP280;62039;50.000;9.064;2023-02-01T13:49:19;100704.75;;;5.38
73734;BMP280;62039;50.000;9.064;2023-02-01T13:51:48;100694.28;;;5.40
73734;BMP280;62039;50.000;9.064;2023-02-01T13:54:27;100701.06;;;5.41
73734;BMP280;62039;50.000;9.064;2023-02-01T13:56:54;100700.84;;;5.44
73734;BMP280;62039;50.000;9.064;2023-02-01T13:59:49;100691.31;;;5.44
73734;BMP280;62039;50.000;9.064;2023-02-01T14:06:16;100694.75;;;5.45
73734;BMP280;62039;50.000;9.064;2023-02-01T14:08:45;100690.13;;;5.48
73734;BMP280;62039;50.000;9.064;2023-02-01T14:11:39;100684.84;;;5.50
73734;BMP280;62039;50.000;9.064;2023-02-01T14:17:36;100670.13;;;5.51
73734;BMP280;62039;50.000;9.064;2023-02-01T14:23:15;100672.34;;;5.55
73734;BMP280;62039;50.000;9.064;2023-02-01T14:25:43;100674.81;;;5.57
73734;BMP280;62039;50.000;9.064;2023-02-01T14:28:12;100684.97;;;5.60
73734;BMP280;62039;50.000;9.064;2023-02-01T14:30:42;100665.72;;;5.62
73734;BMP280;62039;50.000;9.064;2023-02-01T14:33:19;100673.50;;;5.62
73734;BMP280;62039;50.000;9.064;2023-02-01T14:35:59;100670.91;;;5.62
73734;BMP280;62039;50.000;9.064;2023-02-01T14:38:30;100670.09;;;5.62
73734;BMP280;62039;50.000;9.064;2023-02-01T14:41:15;100665.06;;;5.60
73734;BMP280;62039;50.000;9.064;2023-02-01T14:43:51;100680.59;;;5.60
73734;BMP280;62039;50.000;9.064;2023-02-01T14:47:08;100675.66;;;5.57
73734;BMP280;62039;50.000;9.064;2023-02-01T14:49:37;100663.41;;;5.59